Arvada, Wyoming
Current Conditions -  °F | °C
As of 5:53 PM on Tuesday 27 Jan 2015 (Local Time) from KBYG Reporting Station
NA  
Wind Chill:   Ceiling: NA
Heat Index:   Visibility: 10mi
Dew Point:   Wind: 7mph
Humidity: 52%   Direction: 330°NNW
Pressure: 29.9"   Gusts: NA
Location:  44.65°N, 106.13°W
Report Text: KBYG 280053Z AUTO 33006KT 10SM 09/00 A2990 RMK AO2 SLP107 T00940000
Loading
Personal Weather Stations






























Interactive Weather Map New forecast layout! Learn more

10-Day Weather Forecast

Advertisements
Track Severe Weather on mobile